Why, Arizona
Current Conditions -  °F | °C
As of 9:56 PM on Saturday 20 Dec 2014 (Local Time) from KGXF Reporting Station
Few Clouds Few Clouds  
Wind Chill: 51°   Ceiling: Unl
Heat Index: 51°   Visibility: 10mi
Dew Point: 43°   Wind: 3mph
Humidity: 73%   Direction: 160°SSE
Pressure: 30.13"   Gusts: NA
Location:  32.5298°N, 112.879°W
Report Text: KGXF 210456Z AUTO 16003KT 10SM FEW220 11/06 A3013 RMK AO2 SLP200 T01080061
Loading
Personal Weather Stations






























Interactive Weather Map New forecast layout! Learn more

10-Day Weather Forecast

Advertisements
Track Severe Weather on mobile